sensor_id;sensor_type;location;lat;lon;timestamp;temperature;humidity
5059;DHT22;2548;52.050;11.036;2022-08-07T00:01:46;11.90;99.90
5059;DHT22;2548;52.050;11.036;2022-08-07T00:04:13;11.90;99.90
5059;DHT22;2548;52.050;11.036;2022-08-07T00:06:41;11.90;99.90
5059;DHT22;2548;52.050;11.036;2022-08-07T00:09:08;11.80;99.90
5059;DHT22;2548;52.050;11.036;2022-08-07T00:11:36;11.80;99.90
5059;DHT22;2548;52.050;11.036;2022-08-07T00:14:03;11.80;99.90
5059;DHT22;2548;52.050;11.036;2022-08-07T00:16:31;11.90;99.90
5059;DHT22;2548;52.050;11.036;2022-08-07T00:19:00;11.90;99.90
5059;DHT22;2548;52.050;11.036;2022-08-07T00:21:27;11.90;99.90
5059;DHT22;2548;52.050;11.036;2022-08-07T00:23:54;11.80;99.90
5059;DHT22;2548;52.050;11.036;2022-08-07T00:26:22;11.70;99.90
5059;DHT22;2548;52.050;11.036;2022-08-07T00:28:49;11.70;99.90
5059;DHT22;2548;52.050;11.036;2022-08-07T00:31:17;11.70;99.90
5059;DHT22;2548;52.050;11.036;2022-08-07T00:33:44;11.60;99.90
5059;DHT22;2548;52.050;11.036;2022-08-07T00:36:13;11.60;99.90
5059;DHT22;2548;52.050;11.036;2022-08-07T00:38:40;11.60;99.90
5059;DHT22;2548;52.050;11.036;2022-08-07T00:41:08;11.50;99.90
5059;DHT22;2548;52.050;11.036;2022-08-07T00:43:36;11.50;99.90
5059;DHT22;2548;52.050;11.036;2022-08-07T00:46:04;11.50;99.90
5059;DHT22;2548;52.050;11.036;2022-08-07T00:48:31;11.40;99.90
5059;DHT22;2548;52.050;11.036;2022-08-07T00:50:59;11.30;99.90
5059;DHT22;2548;52.050;11.036;2022-08-07T00:53:29;11.20;99.90
5059;DHT22;2548;52.050;11.036;2022-08-07T00:55:57;11.20;99.90
5059;DHT22;2548;52.050;11.036;2022-08-07T00:58:24;11.20;99.90
5059;DHT22;2548;52.050;11.036;2022-08-07T01:00:52;11.20;99.90
5059;DHT22;2548;52.050;11.036;2022-08-07T01:03:20;11.10;99.90
5059;DHT22;2548;52.050;11.036;2022-08-07T01:05:48;11.20;99.90
5059;DHT22;2548;52.050;11.036;2022-08-07T01:08:16;11.00;99.90
5059;DHT22;2548;52.050;11.036;2022-08-07T01:10:45;11.00;99.90
5059;DHT22;2548;52.050;11.036;2022-08-07T01:13:12;11.00;99.90
5059;DHT22;2548;52.050;11.036;2022-08-07T01:15:41;10.90;99.90
5059;DHT22;2548;52.050;11.036;2022-08-07T01:18:08;10.90;99.90
5059;DHT22;2548;52.050;11.036;2022-08-07T01:20:43;10.80;99.90
5059;DHT22;2548;52.050;11.036;2022-08-07T01:23:13;10.90;99.90
5059;DHT22;2548;52.050;11.036;2022-08-07T01:25:42;10.80;99.90
5059;DHT22;2548;52.050;11.036;2022-08-07T01:28:09;10.70;99.90
5059;DHT22;2548;52.050;11.036;2022-08-07T01:30:38;10.50;99.90
5059;DHT22;2548;52.050;11.036;2022-08-07T01:33:06;10.50;99.90
5059;DHT22;2548;52.050;11.036;2022-08-07T01:35:33;10.40;99.90
5059;DHT22;2548;52.050;11.036;2022-08-07T01:38:01;10.40;99.90
5059;DHT22;2548;52.050;11.036;2022-08-07T01:40:30;10.40;99.90
5059;DHT22;2548;52.050;11.036;2022-08-07T01:43:00;10.30;99.90
5059;DHT22;2548;52.050;11.036;2022-08-07T01:45:30;10.20;99.90
5059;DHT22;2548;52.050;11.036;2022-08-07T01:48:00;10.20;99.90
5059;DHT22;2548;52.050;11.036;2022-08-07T01:50:29;10.10;99.90
5059;DHT22;2548;52.050;11.036;2022-08-07T01:52:58;10.10;99.90
5059;DHT22;2548;52.050;11.036;2022-08-07T01:55:31;10.10;99.90
5059;DHT22;2548;52.050;11.036;2022-08-07T01:58:03;10.10;99.90
5059;DHT22;2548;52.050;11.036;2022-08-07T02:00:35;10.00;99.90
5059;DHT22;2548;52.050;11.036;2022-08-07T02:03:08;10.00;99.90
5059;DHT22;2548;52.050;11.036;2022-08-07T02:05:40;9.90;99.90
5059;DHT22;2548;52.050;11.036;2022-08-07T02:08:13;9.90;99.90
5059;DHT22;2548;52.050;11.036;2022-08-07T02:10:45;9.90;99.90
5059;DHT22;2548;52.050;11.036;2022-08-07T02:13:15;9.90;99.90
5059;DHT22;2548;52.050;11.036;2022-08-07T02:15:50;10.00;99.90
5059;DHT22;2548;52.050;11.036;2022-08-07T02:18:20;9.90;99.90
5059;DHT22;2548;52.050;11.036;2022-08-07T02:20:51;10.00;99.90
5059;DHT22;2548;52.050;11.036;2022-08-07T02:23:21;10.00;99.90
5059;DHT22;2548;52.050;11.036;2022-08-07T02:25:51;10.10;99.90
5059;DHT22;2548;52.050;11.036;2022-08-07T02:28:21;10.10;99.90
5059;DHT22;2548;52.050;11.036;2022-08-07T02:30:49;10.10;99.90
5059;DHT22;2548;52.050;11.036;2022-08-07T02:33:19;10.20;99.90
5059;DHT22;2548;52.050;11.036;2022-08-07T02:35:48;10.20;99.90
5059;DHT22;2548;52.050;11.036;2022-08-07T02:38:18;10.20;99.90
5059;DHT22;2548;52.050;11.036;2022-08-07T02:40:47;10.20;99.90
5059;DHT22;2548;52.050;11.036;2022-08-07T02:43:17;10.20;99.90
5059;DHT22;2548;52.050;11.036;2022-08-07T02:45:46;10.20;99.90
5059;DHT22;2548;52.050;11.036;2022-08-07T02:48:15;10.10;99.90
5059;DHT22;2548;52.050;11.036;2022-08-07T02:50:47;10.10;99.90
5059;DHT22;2548;52.050;11.036;2022-08-07T02:53:20;10.00;99.90
5059;DHT22;2548;52.050;11.036;2022-08-07T02:55:49;10.00;99.90
5059;DHT22;2548;52.050;11.036;2022-08-07T02:58:20;9.90;99.90
5059;DHT22;2548;52.050;11.036;2022-08-07T03:00:51;9.90;99.90
5059;DHT22;2548;52.050;11.036;2022-08-07T03:03:22;9.80;99.90
5059;DHT22;2548;52.050;11.036;2022-08-07T03:05:53;9.80;99.90
5059;DHT22;2548;52.050;11.036;2022-08-07T03:08:23;9.90;99.90
5059;DHT22;2548;52.050;11.036;2022-08-07T03:10:52;9.80;99.90
5059;DHT22;2548;52.050;11.036;2022-08-07T03:13:28;9.80;99.90
5059;DHT22;2548;52.050;11.036;2022-08-07T03:15:56;9.80;99.90
5059;DHT22;2548;52.050;11.036;2022-08-07T03:18:25;9.70;99.90
5059;DHT22;2548;52.050;11.036;2022-08-07T03:20:55;9.60;99.90
5059;DHT22;2548;52.050;11.036;2022-08-07T03:23:24;9.60;99.90
5059;DHT22;2548;52.050;11.036;2022-08-07T03:25:56;9.50;99.90
5059;DHT22;2548;52.050;11.036;2022-08-07T03:28:25;9.40;99.90
5059;DHT22;2548;52.050;11.036;2022-08-07T03:30:55;9.30;99.90
5059;DHT22;2548;52.050;11.036;2022-08-07T03:33:38;9.30;99.90
5059;DHT22;2548;52.050;11.036;2022-08-07T03:36:09;9.30;99.90
5059;DHT22;2548;52.050;11.036;2022-08-07T03:38:38;9.20;99.90
5059;DHT22;2548;52.050;11.036;2022-08-07T03:41:07;9.20;99.90
5059;DHT22;2548;52.050;11.036;2022-08-07T03:43:36;9.20;99.90
5059;DHT22;2548;52.050;11.036;2022-08-07T03:46:06;9.20;99.90
5059;DHT22;2548;52.050;11.036;2022-08-07T03:48:35;9.20;99.90
5059;DHT22;2548;52.050;11.036;2022-08-07T03:51:04;9.20;99.90
5059;DHT22;2548;52.050;11.036;2022-08-07T03:53:37;9.30;99.90
5059;DHT22;2548;52.050;11.036;2022-08-07T03:56:07;9.30;99.90
5059;DHT22;2548;52.050;11.036;2022-08-07T03:58:38;9.30;99.90
5059;DHT22;2548;52.050;11.036;2022-08-07T04:01:09;9.30;99.90
5059;DHT22;2548;52.050;11.036;2022-08-07T04:03:38;9.30;99.90
5059;DHT22;2548;52.050;11.036;2022-08-07T04:06:07;9.30;99.90
5059;DHT22;2548;52.050;11.036;2022-08-07T04:08:35;9.40;99.90
5059;DHT22;2548;52.050;11.036;2022-08-07T04:11:04;9.40;99.90
5059;DHT22;2548;52.050;11.036;2022-08-07T04:13:34;9.30;99.90
5059;DHT22;2548;52.050;11.036;2022-08-07T04:16:03;9.20;99.90
5059;DHT22;2548;52.050;11.036;2022-08-07T04:18:33;9.30;99.90
5059;DHT22;2548;52.050;11.036;2022-08-07T04:21:01;9.20;99.90
5059;DHT22;2548;52.050;11.036;2022-08-07T04:23:30;9.20;99.90
5059;DHT22;2548;52.050;11.036;2022-08-07T04:25:59;9.00;99.90
5059;DHT22;2548;52.050;11.036;2022-08-07T04:28:27;9.00;99.90
5059;DHT22;2548;52.050;11.036;2022-08-07T04:30:55;8.90;99.90
5059;DHT22;2548;52.050;11.036;2022-08-07T04:33:27;8.90;99.90
5059;DHT22;2548;52.050;11.036;2022-08-07T04:35:57;8.90;99.90
5059;DHT22;2548;52.050;11.036;2022-08-07T04:38:28;8.90;99.90
5059;DHT22;2548;52.050;11.036;2022-08-07T04:40:57;8.90;99.90
5059;DHT22;2548;52.050;11.036;2022-08-07T04:43:34;8.90;99.90
5059;DHT22;2548;52.050;11.036;2022-08-07T04:46:07;9.00;99.90
5059;DHT22;2548;52.050;11.036;2022-08-07T04:48:43;9.00;99.90
5059;DHT22;2548;52.050;11.036;2022-08-07T04:51:22;9.00;99.90
5059;DHT22;2548;52.050;11.036;2022-08-07T04:54:00;9.00;99.90
5059;DHT22;2548;52.050;11.036;2022-08-07T04:56:35;9.10;99.90
5059;DHT22;2548;52.050;11.036;2022-08-07T04:59:09;9.20;99.90
5059;DHT22;2548;52.050;11.036;2022-08-07T05:01:43;9.30;99.90
5059;DHT22;2548;52.050;11.036;2022-08-07T05:04:17;9.40;99.90
5059;DHT22;2548;52.050;11.036;2022-08-07T05:06:57;9.50;99.90
5059;DHT22;2548;52.050;11.036;2022-08-07T05:09:36;9.70;99.90
5059;DHT22;2548;52.050;11.036;2022-08-07T05:12:08;9.80;99.90
5059;DHT22;2548;52.050;11.036;2022-08-07T05:14:38;9.90;99.90
5059;DHT22;2548;52.050;11.036;2022-08-07T05:17:09;10.00;99.90
5059;DHT22;2548;52.050;11.036;2022-08-07T05:19:42;10.10;99.90
5059;DHT22;2548;52.050;11.036;2022-08-07T05:22:14;10.20;99.90
5059;DHT22;2548;52.050;11.036;2022-08-07T05:24:44;10.30;99.90
5059;DHT22;2548;52.050;11.036;2022-08-07T05:27:14;10.40;99.90
5059;DHT22;2548;52.050;11.036;2022-08-07T05:29:43;10.50;99.90
5059;DHT22;2548;52.050;11.036;2022-08-07T05:32:12;10.60;99.90
5059;DHT22;2548;52.050;11.036;2022-08-07T05:34:44;10.80;99.90
5059;DHT22;2548;52.050;11.036;2022-08-07T05:37:19;10.90;99.90
5059;DHT22;2548;52.050;11.036;2022-08-07T05:39:55;11.00;99.90
5059;DHT22;2548;52.050;11.036;2022-08-07T05:42:24;11.20;99.90
5059;DHT22;2548;52.050;11.036;2022-08-07T05:44:53;11.30;99.90
5059;DHT22;2548;52.050;11.036;2022-08-07T05:47:21;11.40;99.90
5059;DHT22;2548;52.050;11.036;2022-08-07T05:49:50;11.50;99.90
5059;DHT22;2548;52.050;11.036;2022-08-07T05:52:22;11.50;99.90
5059;DHT22;2548;52.050;11.036;2022-08-07T05:54:51;11.60;99.90
5059;DHT22;2548;52.050;11.036;2022-08-07T05:57:20;11.70;99.90
5059;DHT22;2548;52.050;11.036;2022-08-07T05:59:48;11.80;99.90
5059;DHT22;2548;52.050;11.036;2022-08-07T06:02:18;11.90;99.90
5059;DHT22;2548;52.050;11.036;2022-08-07T06:04:51;12.00;99.90
5059;DHT22;2548;52.050;11.036;2022-08-07T06:07:20;12.20;99.90
5059;DHT22;2548;52.050;11.036;2022-08-07T06:09:50;12.30;99.90
5059;DHT22;2548;52.050;11.036;2022-08-07T06:12:18;12.50;99.90
5059;DHT22;2548;52.050;11.036;2022-08-07T06:14:47;12.60;99.90
5059;DHT22;2548;52.050;11.036;2022-08-07T06:17:16;12.70;99.90
5059;DHT22;2548;52.050;11.036;2022-08-07T06:19:44;12.90;99.90
5059;DHT22;2548;52.050;11.036;2022-08-07T06:22:14;13.00;99.90
5059;DHT22;2548;52.050;11.036;2022-08-07T06:24:42;13.10;99.90
5059;DHT22;2548;52.050;11.036;2022-08-07T06:27:19;13.30;99.90
5059;DHT22;2548;52.050;11.036;2022-08-07T06:29:47;13.50;99.90
5059;DHT22;2548;52.050;11.036;2022-08-07T06:32:14;13.60;99.90
5059;DHT22;2548;52.050;11.036;2022-08-07T06:34:42;13.80;99.90
5059;DHT22;2548;52.050;11.036;2022-08-07T06:37:10;13.90;99.90
5059;DHT22;2548;52.050;11.036;2022-08-07T06:39:38;14.10;99.90
5059;DHT22;2548;52.050;11.036;2022-08-07T06:42:13;14.20;99.90
5059;DHT22;2548;52.050;11.036;2022-08-07T06:45:08;14.40;99.90
5059;DHT22;2548;52.050;11.036;2022-08-07T06:47:37;14.60;99.90
5059;DHT22;2548;52.050;11.036;2022-08-07T06:50:05;14.80;99.90
5059;DHT22;2548;52.050;11.036;2022-08-07T06:52:38;15.00;99.90
5059;DHT22;2548;52.050;11.036;2022-08-07T06:55:15;15.20;99.90
5059;DHT22;2548;52.050;11.036;2022-08-07T06:57:46;15.50;99.90
5059;DHT22;2548;52.050;11.036;2022-08-07T07:00:18;15.60;99.90
5059;DHT22;2548;52.050;11.036;2022-08-07T07:02:47;15.90;99.90
5059;DHT22;2548;52.050;11.036;2022-08-07T07:05:15;16.00;99.90
5059;DHT22;2548;52.050;11.036;2022-08-07T07:07:46;16.30;99.90
5059;DHT22;2548;52.050;11.036;2022-08-07T07:10:14;16.40;99.90
5059;DHT22;2548;52.050;11.036;2022-08-07T07:12:47;16.60;99.90
5059;DHT22;2548;52.050;11.036;2022-08-07T07:15:18;16.80;99.90
5059;DHT22;2548;52.050;11.036;2022-08-07T07:17:53;17.00;99.90
5059;DHT22;2548;52.050;11.036;2022-08-07T07:20:28;17.20;99.90
5059;DHT22;2548;52.050;11.036;2022-08-07T07:22:59;17.40;99.90
5059;DHT22;2548;52.050;11.036;2022-08-07T07:25:28;17.50;99.90
5059;DHT22;2548;52.050;11.036;2022-08-07T07:28:00;17.60;99.90
5059;DHT22;2548;52.050;11.036;2022-08-07T07:30:33;17.70;99.90
5059;DHT22;2548;52.050;11.036;2022-08-07T07:33:01;17.80;99.90
5059;DHT22;2548;52.050;11.036;2022-08-07T07:35:31;18.00;99.90
5059;DHT22;2548;52.050;11.036;2022-08-07T07:38:01;18.20;99.90
5059;DHT22;2548;52.050;11.036;2022-08-07T07:40:30;18.40;99.90
5059;DHT22;2548;52.050;11.036;2022-08-07T07:43:01;18.60;99.90
5059;DHT22;2548;52.050;11.036;2022-08-07T07:45:31;18.80;99.90
5059;DHT22;2548;52.050;11.036;2022-08-07T07:47:59;19.00;99.90
5059;DHT22;2548;52.050;11.036;2022-08-07T07:50:30;19.10;99.90
5059;DHT22;2548;52.050;11.036;2022-08-07T07:52:58;19.30;99.90
5059;DHT22;2548;52.050;11.036;2022-08-07T07:55:27;19.60;99.90
5059;DHT22;2548;52.050;11.036;2022-08-07T07:57:57;19.70;99.90
5059;DHT22;2548;52.050;11.036;2022-08-07T08:00:27;19.80;99.90
5059;DHT22;2548;52.050;11.036;2022-08-07T08:02:58;20.00;99.90
5059;DHT22;2548;52.050;11.036;2022-08-07T08:05:28;20.00;99.90
5059;DHT22;2548;52.050;11.036;2022-08-07T08:07:56;20.10;99.90
5059;DHT22;2548;52.050;11.036;2022-08-07T08:10:24;20.30;99.90
5059;DHT22;2548;52.050;11.036;2022-08-07T08:12:52;20.40;99.90
5059;DHT22;2548;52.050;11.036;2022-08-07T08:15:20;20.60;99.90
5059;DHT22;2548;52.050;11.036;2022-08-07T08:17:50;20.70;99.90
5059;DHT22;2548;52.050;11.036;2022-08-07T08:20:18;20.80;99.80
5059;DHT22;2548;52.050;11.036;2022-08-07T08:22:46;20.90;99.70
5059;DHT22;2548;52.050;11.036;2022-08-07T08:25:33;21.00;98.90
5059;DHT22;2548;52.050;11.036;2022-08-07T08:28:22;21.10;98.70
5059;DHT22;2548;52.050;11.036;2022-08-07T08:31:00;21.20;97.90
5059;DHT22;2548;52.050;11.036;2022-08-07T08:33:32;21.30;97.80
5059;DHT22;2548;52.050;11.036;2022-08-07T08:36:02;21.40;97.80
5059;DHT22;2548;52.050;11.036;2022-08-07T08:38:31;21.50;97.50
5059;DHT22;2548;52.050;11.036;2022-08-07T08:41:04;21.60;97.60
5059;DHT22;2548;52.050;11.036;2022-08-07T08:43:39;21.70;97.20
5059;DHT22;2548;52.050;11.036;2022-08-07T08:46:16;21.80;97.20
5059;DHT22;2548;52.050;11.036;2022-08-07T08:49:11;21.90;96.20
5059;DHT22;2548;52.050;11.036;2022-08-07T08:51:50;22.10;95.20
5059;DHT22;2548;52.050;11.036;2022-08-07T08:54:22;22.10;94.90
5059;DHT22;2548;52.050;11.036;2022-08-07T08:56:52;22.20;94.40
5059;DHT22;2548;52.050;11.036;2022-08-07T08:59:28;22.20;93.70
5059;DHT22;2548;52.050;11.036;2022-08-07T09:02:09;22.30;94.40
5059;DHT22;2548;52.050;11.036;2022-08-07T09:04:44;22.50;93.50
5059;DHT22;2548;52.050;11.036;2022-08-07T09:07:16;22.50;93.20
5059;DHT22;2548;52.050;11.036;2022-08-07T09:09:54;22.70;92.30
5059;DHT22;2548;52.050;11.036;2022-08-07T09:12:36;22.80;92.00
5059;DHT22;2548;52.050;11.036;2022-08-07T09:15:17;23.10;92.10
5059;DHT22;2548;52.050;11.036;2022-08-07T09:18:01;23.20;90.90
5059;DHT22;2548;52.050;11.036;2022-08-07T09:20:44;23.30;91.50
5059;DHT22;2548;52.050;11.036;2022-08-07T09:23:25;23.40;90.90
5059;DHT22;2548;52.050;11.036;2022-08-07T09:26:07;23.50;90.70
5059;DHT22;2548;52.050;11.036;2022-08-07T09:28:39;23.60;90.40
5059;DHT22;2548;52.050;11.036;2022-08-07T09:31:10;23.50;90.10
5059;DHT22;2548;52.050;11.036;2022-08-07T09:33:56;23.20;90.20
5059;DHT22;2548;52.050;11.036;2022-08-07T09:36:32;22.80;90.00
5059;DHT22;2548;52.050;11.036;2022-08-07T09:39:08;22.50;90.00
5059;DHT22;2548;52.050;11.036;2022-08-07T09:41:46;22.20;89.80
5059;DHT22;2548;52.050;11.036;2022-08-07T09:44:24;22.10;89.90
5059;DHT22;2548;52.050;11.036;2022-08-07T09:47:02;22.10;90.40
5059;DHT22;2548;52.050;11.036;2022-08-07T09:49:41;22.10;89.40
5059;DHT22;2548;52.050;11.036;2022-08-07T09:52:20;22.30;89.70
5059;DHT22;2548;52.050;11.036;2022-08-07T09:54:54;22.70;90.10
5059;DHT22;2548;52.050;11.036;2022-08-07T09:57:44;23.20;90.10
5059;DHT22;2548;52.050;11.036;2022-08-07T10:00:17;23.60;88.00
5059;DHT22;2548;52.050;11.036;2022-08-07T10:05:58;23.70;86.90
5059;DHT22;2548;52.050;11.036;2022-08-07T10:11:55;23.70;86.70
5059;DHT22;2548;52.050;11.036;2022-08-07T10:14:50;23.50;87.00
5059;DHT22;2548;52.050;11.036;2022-08-07T10:17:38;23.30;85.60
5059;DHT22;2548;52.050;11.036;2022-08-07T10:20:21;23.10;86.70
5059;DHT22;2548;52.050;11.036;2022-08-07T10:23:06;22.90;85.20
5059;DHT22;2548;52.050;11.036;2022-08-07T10:25:53;22.60;85.60
5059;DHT22;2548;52.050;11.036;2022-08-07T10:28:40;22.50;85.70
5059;DHT22;2548;52.050;11.036;2022-08-07T10:31:26;22.40;85.90
5059;DHT22;2548;52.050;11.036;2022-08-07T10:34:03;22.30;85.90
5059;DHT22;2548;52.050;11.036;2022-08-07T10:36:44;22.30;87.70
5059;DHT22;2548;52.050;11.036;2022-08-07T10:39:24;22.20;88.60
5059;DHT22;2548;52.050;11.036;2022-08-07T10:42:06;22.20;88.70
5059;DHT22;2548;52.050;11.036;2022-08-07T10:44:44;22.20;88.80
5059;DHT22;2548;52.050;11.036;2022-08-07T10:47:20;22.20;88.00
5059;DHT22;2548;52.050;11.036;2022-08-07T10:49:54;22.20;87.60
5059;DHT22;2548;52.050;11.036;2022-08-07T10:52:31;22.20;85.50
5059;DHT22;2548;52.050;11.036;2022-08-07T10:55:08;22.20;85.70
5059;DHT22;2548;52.050;11.036;2022-08-07T10:57:42;22.30;86.80
5059;DHT22;2548;52.050;11.036;2022-08-07T11:00:15;22.60;85.80
5059;DHT22;2548;52.050;11.036;2022-08-07T11:02:49;23.20;84.70
5059;DHT22;2548;52.050;11.036;2022-08-07T11:05:30;23.60;84.80
5059;DHT22;2548;52.050;11.036;2022-08-07T11:08:08;24.20;85.60
5059;DHT22;2548;52.050;11.036;2022-08-07T11:10:44;24.40;84.10
5059;DHT22;2548;52.050;11.036;2022-08-07T11:13:20;24.40;83.30
5059;DHT22;2548;52.050;11.036;2022-08-07T11:15:54;24.40;81.90
5059;DHT22;2548;52.050;11.036;2022-08-07T11:18:28;24.10;81.60
5059;DHT22;2548;52.050;11.036;2022-08-07T11:21:05;23.90;83.30
5059;DHT22;2548;52.050;11.036;2022-08-07T11:23:40;23.50;81.70
5059;DHT22;2548;52.050;11.036;2022-08-07T11:26:15;23.30;82.30
5059;DHT22;2548;52.050;11.036;2022-08-07T11:28:48;23.20;81.90
5059;DHT22;2548;52.050;11.036;2022-08-07T11:31:26;23.30;81.50
5059;DHT22;2548;52.050;11.036;2022-08-07T11:34:03;23.70;82.10
5059;DHT22;2548;52.050;11.036;2022-08-07T11:36:38;24.20;81.80
5059;DHT22;2548;52.050;11.036;2022-08-07T11:39:31;24.60;81.90
5059;DHT22;2548;52.050;11.036;2022-08-07T11:42:22;25.10;80.60
5059;DHT22;2548;52.050;11.036;2022-08-07T11:44:57;25.70;79.90
5059;DHT22;2548;52.050;11.036;2022-08-07T11:47:47;26.10;78.70
5059;DHT22;2548;52.050;11.036;2022-08-07T11:50:28;26.30;76.30
5059;DHT22;2548;52.050;11.036;2022-08-07T11:53:09;26.60;75.50
5059;DHT22;2548;52.050;11.036;2022-08-07T11:56:00;26.80;76.10
5059;DHT22;2548;52.050;11.036;2022-08-07T11:58:43;26.80;75.40
5059;DHT22;2548;52.050;11.036;2022-08-07T12:01:28;26.80;74.50
5059;DHT22;2548;52.050;11.036;2022-08-07T12:04:23;26.30;75.50
5059;DHT22;2548;52.050;11.036;2022-08-07T12:07:00;25.80;75.50
5059;DHT22;2548;52.050;11.036;2022-08-07T12:09:34;25.10;75.50
5059;DHT22;2548;52.050;11.036;2022-08-07T12:12:06;24.80;77.20
5059;DHT22;2548;52.050;11.036;2022-08-07T12:14:43;24.50;78.30
5059;DHT22;2548;52.050;11.036;2022-08-07T12:17:16;24.30;77.90
5059;DHT22;2548;52.050;11.036;2022-08-07T12:19:50;24.40;78.20
5059;DHT22;2548;52.050;11.036;2022-08-07T12:22:26;24.90;78.50
5059;DHT22;2548;52.050;11.036;2022-08-07T12:25:02;25.40;78.60
5059;DHT22;2548;52.050;11.036;2022-08-07T12:27:49;25.40;77.20
5059;DHT22;2548;52.050;11.036;2022-08-07T12:30:22;25.20;76.00
5059;DHT22;2548;52.050;11.036;2022-08-07T12:32:59;24.80;75.90
5059;DHT22;2548;52.050;11.036;2022-08-07T12:35:30;24.60;76.80
5059;DHT22;2548;52.050;11.036;2022-08-07T12:37:58;24.50;76.60
5059;DHT22;2548;52.050;11.036;2022-08-07T12:40:28;24.60;77.30
5059;DHT22;2548;52.050;11.036;2022-08-07T12:43:00;24.90;77.10
5059;DHT22;2548;52.050;11.036;2022-08-07T12:45:32;25.00;78.10
5059;DHT22;2548;52.050;11.036;2022-08-07T12:48:06;25.00;77.20
5059;DHT22;2548;52.050;11.036;2022-08-07T12:50:46;25.00;76.10
5059;DHT22;2548;52.050;11.036;2022-08-07T12:53:21;24.80;75.80
5059;DHT22;2548;52.050;11.036;2022-08-07T12:55:57;24.70;75.00
5059;DHT22;2548;52.050;11.036;2022-08-07T12:58:25;24.50;76.90
5059;DHT22;2548;52.050;11.036;2022-08-07T13:01:07;24.30;77.10
5059;DHT22;2548;52.050;11.036;2022-08-07T13:04:20;24.20;76.80
5059;DHT22;2548;52.050;11.036;2022-08-07T13:07:13;24.10;76.90
5059;DHT22;2548;52.050;11.036;2022-08-07T13:09:58;24.40;76.50
5059;DHT22;2548;52.050;11.036;2022-08-07T13:12:32;24.90;75.70
5059;DHT22;2548;52.050;11.036;2022-08-07T13:15:12;25.40;76.60
5059;DHT22;2548;52.050;11.036;2022-08-07T13:17:48;25.80;74.40
5059;DHT22;2548;52.050;11.036;2022-08-07T13:20:22;26.10;73.80
5059;DHT22;2548;52.050;11.036;2022-08-07T13:22:59;26.30;73.80
5059;DHT22;2548;52.050;11.036;2022-08-07T13:25:35;26.30;71.50
5059;DHT22;2548;52.050;11.036;2022-08-07T13:28:09;26.20;72.90
5059;DHT22;2548;52.050;11.036;2022-08-07T13:30:41;26.30;72.80
5059;DHT22;2548;52.050;11.036;2022-08-07T13:33:15;26.40;71.00
5059;DHT22;2548;52.050;11.036;2022-08-07T13:35:53;26.30;71.30
5059;DHT22;2548;52.050;11.036;2022-08-07T13:38:30;26.50;71.90
5059;DHT22;2548;52.050;11.036;2022-08-07T13:41:05;26.50;70.00
5059;DHT22;2548;52.050;11.036;2022-08-07T13:43:34;26.50;70.90
5059;DHT22;2548;52.050;11.036;2022-08-07T13:46:08;26.70;70.00
5059;DHT22;2548;52.050;11.036;2022-08-07T13:48:37;26.70;69.40
5059;DHT22;2548;52.050;11.036;2022-08-07T13:51:07;26.80;69.80
5059;DHT22;2548;52.050;11.036;2022-08-07T13:53:39;26.90;69.80
5059;DHT22;2548;52.050;11.036;2022-08-07T13:56:10;26.90;70.00
5059;DHT22;2548;52.050;11.036;2022-08-07T13:58:44;27.10;69.60
5059;DHT22;2548;52.050;11.036;2022-08-07T14:01:29;27.30;69.70
5059;DHT22;2548;52.050;11.036;2022-08-07T14:04:00;27.50;69.40
5059;DHT22;2548;52.050;11.036;2022-08-07T14:06:34;27.70;69.20
5059;DHT22;2548;52.050;11.036;2022-08-07T14:09:06;27.80;68.70
5059;DHT22;2548;52.050;11.036;2022-08-07T14:11:49;27.90;67.60
5059;DHT22;2548;52.050;11.036;2022-08-07T14:14:28;27.50;66.40
5059;DHT22;2548;52.050;11.036;2022-08-07T14:17:00;27.30;67.50
5059;DHT22;2548;52.050;11.036;2022-08-07T14:19:35;27.30;67.70
5059;DHT22;2548;52.050;11.036;2022-08-07T14:22:05;27.50;66.90
5059;DHT22;2548;52.050;11.036;2022-08-07T14:24:38;27.60;67.70
5059;DHT22;2548;52.050;11.036;2022-08-07T14:27:09;27.70;67.00
5059;DHT22;2548;52.050;11.036;2022-08-07T14:29:41;27.60;66.10
5059;DHT22;2548;52.050;11.036;2022-08-07T14:32:11;27.70;68.10
5059;DHT22;2548;52.050;11.036;2022-08-07T14:34:43;27.90;67.10
5059;DHT22;2548;52.050;11.036;2022-08-07T14:37:13;28.00;68.10
5059;DHT22;2548;52.050;11.036;2022-08-07T14:39:45;27.60;66.80
5059;DHT22;2548;52.050;11.036;2022-08-07T14:42:14;27.50;67.10
5059;DHT22;2548;52.050;11.036;2022-08-07T14:44:51;27.50;67.10
5059;DHT22;2548;52.050;11.036;2022-08-07T14:47:20;27.60;66.30
5059;DHT22;2548;52.050;11.036;2022-08-07T14:49:51;27.70;66.30
5059;DHT22;2548;52.050;11.036;2022-08-07T14:52:20;27.80;66.70
5059;DHT22;2548;52.050;11.036;2022-08-07T14:54:51;27.90;66.50
5059;DHT22;2548;52.050;11.036;2022-08-07T14:57:22;28.00;65.60
5059;DHT22;2548;52.050;11.036;2022-08-07T14:59:51;27.90;64.50
5059;DHT22;2548;52.050;11.036;2022-08-07T15:02:23;27.90;65.90
5059;DHT22;2548;52.050;11.036;2022-08-07T15:04:52;27.90;65.90
5059;DHT22;2548;52.050;11.036;2022-08-07T15:07:22;28.10;65.30
5059;DHT22;2548;52.050;11.036;2022-08-07T15:09:55;28.20;65.80
5059;DHT22;2548;52.050;11.036;2022-08-07T15:12:26;28.40;64.30
5059;DHT22;2548;52.050;11.036;2022-08-07T15:15:02;28.40;64.00
5059;DHT22;2548;52.050;11.036;2022-08-07T15:17:32;28.40;64.30
5059;DHT22;2548;52.050;11.036;2022-08-07T15:20:03;28.20;63.80
5059;DHT22;2548;52.050;11.036;2022-08-07T15:22:41;28.20;64.80
5059;DHT22;2548;52.050;11.036;2022-08-07T15:25:17;28.30;65.20
5059;DHT22;2548;52.050;11.036;2022-08-07T15:27:48;28.50;65.00
5059;DHT22;2548;52.050;11.036;2022-08-07T15:30:18;28.40;65.10
5059;DHT22;2548;52.050;11.036;2022-08-07T15:32:47;28.20;64.00
5059;DHT22;2548;52.050;11.036;2022-08-07T15:35:20;28.00;64.50
5059;DHT22;2548;52.050;11.036;2022-08-07T15:37:51;28.00;64.80
5059;DHT22;2548;52.050;11.036;2022-08-07T15:40:22;27.80;63.10
5059;DHT22;2548;52.050;11.036;2022-08-07T15:42:53;27.40;64.30
5059;DHT22;2548;52.050;11.036;2022-08-07T15:45:31;27.50;64.90
5059;DHT22;2548;52.050;11.036;2022-08-07T15:48:02;27.50;63.30
5059;DHT22;2548;52.050;11.036;2022-08-07T15:50:33;27.40;64.90
5059;DHT22;2548;52.050;11.036;2022-08-07T15:53:05;27.40;64.40
5059;DHT22;2548;52.050;11.036;2022-08-07T15:55:36;27.30;65.30
5059;DHT22;2548;52.050;11.036;2022-08-07T15:58:05;27.30;63.60
5059;DHT22;2548;52.050;11.036;2022-08-07T16:00:36;27.00;64.60
5059;DHT22;2548;52.050;11.036;2022-08-07T16:03:10;27.10;64.10
5059;DHT22;2548;52.050;11.036;2022-08-07T16:05:44;27.10;64.20
5059;DHT22;2548;52.050;11.036;2022-08-07T16:08:15;27.10;64.20
5059;DHT22;2548;52.050;11.036;2022-08-07T16:10:47;26.80;64.90
5059;DHT22;2548;52.050;11.036;2022-08-07T16:13:51;26.70;64.90
5059;DHT22;2548;52.050;11.036;2022-08-07T16:16:31;26.80;64.70
5059;DHT22;2548;52.050;11.036;2022-08-07T16:19:16;26.90;65.00
5059;DHT22;2548;52.050;11.036;2022-08-07T16:22:05;27.00;64.90
5059;DHT22;2548;52.050;11.036;2022-08-07T16:24:40;26.70;64.10
5059;DHT22;2548;52.050;11.036;2022-08-07T16:27:20;26.70;64.50
5059;DHT22;2548;52.050;11.036;2022-08-07T16:30:05;26.70;65.10
5059;DHT22;2548;52.050;11.036;2022-08-07T16:32:38;26.70;64.50